Terminal Aerodrome Forecast
Issued by NWS Shreveport, LA

Home | Current Version | Previous Version | Text Only | Print | Product List | Glossary On
Versions: 1 2 3 4 5 6 7 8 9 10 11 12 13 14 15 16 17 18
000
FTUS44 KSHV 050712 AAA
TAFLFK
TAF AMD
KLFK 050712Z 0507/0606 13005KT P6SM BKN003
      TEMPO 0511/0514 4SM BR BKN010
     FM051400 21008KT P6SM SCT030
     FM051800 18011G17KT P6SM VCTS BKN050CB
     FM060000 15009KT P6SM BKN250=

USA.gov is the U.S. government's official web portal to all federal, state and local government web resources and services.